Time;durP1;ratioP1;P1;durP2;ratioP2;P2;SDS_P1;SDS_P2;PMS_P1;PMS_P2;Temp;Humidity;BMP_temperature;BMP_pressure;BME280_temperature;BME280_humidity;BME280_pressure;Samples;Min_cycle;Max_cycle;Signal;HPM_P1;HPM_P2
2023/05/18 00:02:06;;;;;;;5.15;1.58;;;;;;;;;;5088352;28;20054;-64
2023/05/18 00:04:33;;;;;;;4.03;1.10;;;;;;;;;;5078345;27;20040;-69
2023/05/18 00:07:02;;;;;;;10.02;1.42;;;;;;;;;;5062751;28;20105;-66
2023/05/18 00:09:28;;;;;;;5.82;1.10;;;;;;;;;;5077862;27;20131;-66
2023/05/18 00:11:57;;;;;;;4.68;1.20;;;;;;;;;;5075476;28;20200;-68
2023/05/18 00:14:26;;;;;;;4.07;1.30;;;;;;;;;;5077872;28;20147;-68
2023/05/18 00:16:53;;;;;;;4.80;1.45;;;;;;;;;;5054313;28;20057;-66
2023/05/18 00:19:20;;;;;;;5.85;1.40;;;;;;;;;;5062146;27;20113;-65
2023/05/18 00:21:46;;;;;;;3.58;1.02;;;;;;;;;;5058926;28;20072;-69
2023/05/18 00:24:13;;;;;;;3.05;1.08;;;;;;;;;;5072087;28;20098;-66
2023/05/18 00:26:40;;;;;;;4.85;1.30;;;;;;;;;;5050093;28;20139;-67
2023/05/18 00:29:08;;;;;;;5.90;1.30;;;;;;;;;;5056303;28;20056;-65
2023/05/18 00:31:37;;;;;;;3.60;1.30;;;;;;;;;;5055435;28;20063;-69
2023/05/18 00:34:03;;;;;;;;;;;;;;;;;;5075222;28;20056;-69
2023/05/18 00:36:30;;;;;;;7.78;1.50;;;;;;;;;;5061894;28;19924;-68
2023/05/18 00:38:57;;;;;;;2.78;1.10;;;;;;;;;;5037544;28;20060;-68
2023/05/18 00:41:23;;;;;;;4.90;1.27;;;;;;;;;;5059342;28;20053;-67
2023/05/18 00:43:50;;;;;;;3.38;1.27;;;;;;;;;;5059538;28;20056;-66
2023/05/18 00:46:18;;;;;;;2.10;0.90;;;;;;;;;;5062363;28;20053;-64
2023/05/18 00:48:44;;;;;;;3.88;1.30;;;;;;;;;;5048532;28;20052;-64
2023/05/18 00:51:11;;;;;;;6.32;1.40;;;;;;;;;;5055621;28;20036;-66
2023/05/18 00:53:38;;;;;;;3.70;1.10;;;;;;;;;;5066767;28;20079;-67
2023/05/18 00:56:04;;;;;;;3.17;1.17;;;;;;;;;;5075028;28;20138;-66
2023/05/18 00:58:31;;;;;;;3.15;1.15;;;;;;;;;;5058148;28;20062;-64
2023/05/18 01:00:57;;;;;;;3.75;1.10;;;;;;;;;;5070810;28;20059;-65
2023/05/18 01:03:28;;;;;;;4.25;1.17;;;;;;;;;;4975911;28;20062;-68
2023/05/18 01:05:56;;;;;;;5.43;1.30;;;;;;;;;;4975607;28;20174;-68
2023/05/18 01:08:23;;;;;;;4.40;1.20;;;;;;;;;;5041328;28;20186;-66
2023/05/18 01:10:51;;;;;;;4.38;1.30;;;;;;;;;;5076344;28;20066;-65
2023/05/18 01:13:21;;;;;;;6.28;1.40;;;;;;;;;;5046629;28;20153;-67
2023/05/18 01:15:51;;;;;;;5.43;1.88;;;;;;;;;;4977588;28;20137;-66
2023/05/18 01:18:23;;;;;;;4.65;1.25;;;;;;;;;;5038041;28;20050;-67
2023/05/18 01:20:57;;;;;;;2.75;1.13;;;;;;;;;;5056338;28;20058;-64
2023/05/18 01:23:41;;;;;;;3.03;1.23;;;;;;;;;;4974267;28;20086;-67
2023/05/18 01:26:14;;;;;;;4.05;1.20;;;;;;;;;;5060790;28;20084;-67
2023/05/18 01:28:41;;;;;;;4.72;1.33;;;;;;;;;;5022491;28;20051;-65
2023/05/18 01:31:08;;;;;;;4.93;1.30;;;;;;;;;;4977611;28;20058;-68
2023/05/18 01:33:35;;;;;;;4.25;1.45;;;;;;;;;;5060035;28;20062;-68
2023/05/18 01:36:01;;;;;;;4.03;1.30;;;;;;;;;;5079090;28;20067;-63
2023/05/18 01:38:28;;;;;;;4.72;1.25;;;;;;;;;;5044425;28;20074;-68
2023/05/18 01:40:57;;;;;;;3.80;1.10;;;;;;;;;;4973894;28;20151;-65
2023/05/18 01:43:28;;;;;;;5.50;1.20;;;;;;;;;;4975901;28;20069;-67
2023/05/18 01:45:56;;;;;;;2.28;1.00;;;;;;;;;;4996051;28;20141;-66
2023/05/18 01:48:24;;;;;;;7.22;1.52;;;;;;;;;;5053924;28;20068;-66
2023/05/18 01:50:51;;;;;;;7.67;1.13;;;;;;;;;;4971203;28;20113;-66
2023/05/18 01:53:20;;;;;;;4.10;1.40;;;;;;;;;;4974577;28;20117;-65
2023/05/18 01:55:48;;;;;;;3.63;1.23;;;;;;;;;;4990840;28;20050;-67
2023/05/18 01:58:15;;;;;;;3.50;1.20;;;;;;;;;;4991225;28;20053;-68
2023/05/18 02:00:44;;;;;;;2.90;1.27;;;;;;;;;;5041295;28;20091;-67
2023/05/18 02:03:12;;;;;;;3.45;1.15;;;;;;;;;;4994267;28;20069;-67
2023/05/18 02:05:38;;;;;;;2.63;0.95;;;;;;;;;;5029064;28;20052;-65
2023/05/18 02:08:05;;;;;;;4.00;1.25;;;;;;;;;;5001766;28;20065;-65
2023/05/18 02:10:31;;;;;;;2.58;1.20;;;;;;;;;;4980271;28;20078;-67
2023/05/18 02:12:58;;;;;;;5.88;1.40;;;;;;;;;;4987333;28;20111;-67
2023/05/18 02:15:24;;;;;;;3.33;1.08;;;;;;;;;;4978372;28;20145;-66
2023/05/18 02:17:56;;;;;;;7.88;1.60;;;;;;;;;;5005092;28;20058;-68
2023/05/18 02:20:23;;;;;;;2.50;1.08;;;;;;;;;;5050919;28;20138;-67
2023/05/18 02:22:50;;;;;;;5.55;1.30;;;;;;;;;;4994806;28;20053;-66
2023/05/18 02:25:17;;;;;;;3.65;1.20;;;;;;;;;;4977777;27;20054;-65
2023/05/18 02:27:44;;;;;;;4.50;1.70;;;;;;;;;;4974897;28;20171;-65
2023/05/18 02:30:11;;;;;;;4.85;1.13;;;;;;;;;;5041214;28;20058;-67
2023/05/18 02:32:37;;;;;;;5.10;1.23;;;;;;;;;;5046300;28;20050;-64
2023/05/18 02:35:07;;;;;;;2.65;1.13;;;;;;;;;;5001747;28;20058;-67
2023/05/18 02:37:38;;;;;;;5.30;1.38;;;;;;;;;;4984065;28;20065;-67
2023/05/18 02:40:05;;;;;;;4.38;1.30;;;;;;;;;;4995111;28;20073;-66
2023/05/18 02:42:32;;;;;;;3.13;1.23;;;;;;;;;;5075453;28;20190;-65
2023/05/18 02:44:58;;;;;;;2.63;1.17;;;;;;;;;;5046802;28;20167;-67
2023/05/18 02:47:25;;;;;;;4.35;1.35;;;;;;;;;;5052422;28;20237;-65
2023/05/18 02:49:51;;;;;;;3.10;1.30;;;;;;;;;;5058538;28;20079;-68
2023/05/18 02:52:20;;;;;;;3.20;1.30;;;;;;;;;;5042544;28;20055;-62
2023/05/18 02:54:46;;;;;;;6.47;1.60;;;;;;;;;;5039101;28;20096;-66
2023/05/18 02:57:13;;;;;;;5.22;1.20;;;;;;;;;;4969007;28;20077;-66
2023/05/18 02:59:39;;;;;;;3.33;1.30;;;;;;;;;;4975837;28;20062;-67
2023/05/18 03:02:06;;;;;;;4.18;1.23;;;;;;;;;;5006657;28;20065;-66
2023/05/18 03:04:32;;;;;;;3.40;1.40;;;;;;;;;;4953154;28;20058;-65
2023/05/18 03:07:01;;;;;;;3.70;1.27;;;;;;;;;;4952220;28;20130;-68
2023/05/18 03:09:27;;;;;;;;;;;;;;;;;;4963659;28;20070;-68
2023/05/18 03:11:55;;;;;;;4.60;1.55;;;;;;;;;;4972119;28;19930;-66
2023/05/18 03:14:21;;;;;;;3.17;1.10;;;;;;;;;;4962718;28;20060;-64
2023/05/18 03:16:52;;;;;;;3.92;1.52;;;;;;;;;;4985082;28;20186;-64
2023/05/18 03:19:18;;;;;;;4.07;1.25;;;;;;;;;;4946992;28;20065;-67
2023/05/18 03:21:45;;;;;;;5.00;1.30;;;;;;;;;;4952916;28;20059;-67
2023/05/18 03:24:13;;;;;;;4.32;1.10;;;;;;;;;;4953880;28;20120;-66
2023/05/18 03:26:40;;;;;;;4.45;1.33;;;;;;;;;;4970359;28;20070;-67
2023/05/18 03:29:12;;;;;;;3.13;1.23;;;;;;;;;;5055403;28;20052;-66
2023/05/18 03:31:38;;;;;;;3.65;1.10;;;;;;;;;;5058225;28;20056;-65
2023/05/18 03:34:05;;;;;;;5.15;1.42;;;;;;;;;;4985899;28;20050;-65
2023/05/18 03:36:31;;;;;;;5.32;1.20;;;;;;;;;;4975528;28;20054;-66
2023/05/18 03:38:58;;;;;;;5.05;1.30;;;;;;;;;;4957498;28;20058;-68
2023/05/18 03:41:24;;;;;;;4.90;1.08;;;;;;;;;;4951827;28;20062;-66
2023/05/18 03:43:50;;;;;;;4.68;1.25;;;;;;;;;;4961161;28;20047;-67
2023/05/18 03:46:21;;;;;;;5.80;1.40;;;;;;;;;;4956692;28;20112;-66
2023/05/18 03:48:47;;;;;;;2.13;1.20;;;;;;;;;;4963401;28;20210;-68
2023/05/18 03:51:16;;;;;;;3.30;1.08;;;;;;;;;;4953672;28;20066;-68
2023/05/18 03:53:42;;;;;;;;;;;;;;;;;;4953970;28;20066;-69
2023/05/18 03:56:09;;;;;;;3.95;1.40;;;;;;;;;;4956014;28;19926;-67
2023/05/18 03:58:35;;;;;;;4.15;1.48;;;;;;;;;;4958859;28;20050;-67
2023/05/18 04:01:07;;;;;;;4.28;1.25;;;;;;;;;;4953720;28;20055;-65
2023/05/18 04:03:39;;;;;;;3.47;1.20;;;;;;;;;;5043979;28;20108;-65
2023/05/18 04:06:06;;;;;;;4.63;1.40;;;;;;;;;;5042892;28;20058;-66
2023/05/18 04:08:35;;;;;;;3.10;1.55;;;;;;;;;;4986307;28;20053;-68
2023/05/18 04:11:05;;;;;;;3.63;1.95;;;;;;;;;;5065362;28;20071;-66
2023/05/18 04:13:35;;;;;;;4.30;1.20;;;;;;;;;;5063293;28;20157;-65
2023/05/18 04:16:03;;;;;;;4.13;1.10;;;;;;;;;;4974111;28;20062;-65
2023/05/18 04:18:30;;;;;;;6.30;1.40;;;;;;;;;;5045348;28;20137;-67
2023/05/18 04:21:01;;;;;;;4.40;1.35;;;;;;;;;;4991128;28;20119;-64
2023/05/18 04:23:28;;;;;;;5.80;1.50;;;;;;;;;;5038390;28;20061;-64
2023/05/18 04:25:55;;;;;;;4.55;1.38;;;;;;;;;;4979678;28;20050;-65
2023/05/18 04:28:21;;;;;;;4.63;1.42;;;;;;;;;;5043419;28;20116;-67
2023/05/18 04:30:50;;;;;;;4.75;1.50;;;;;;;;;;5045774;28;20056;-67
2023/05/18 04:33:19;;;;;;;2.60;1.15;;;;;;;;;;4994498;28;20053;-67
2023/05/18 04:35:45;;;;;;;;;;;;;;;;;;5001619;28;20064;-66
2023/05/18 04:38:16;;;;;;;3.70;1.20;;;;;;;;;;5060012;28;20107;-67
2023/05/18 04:40:47;;;;;;;4.45;1.17;;;;;;;;;;5054616;28;20076;-67
2023/05/18 04:43:13;;;;;;;5.53;1.25;;;;;;;;;;5038607;28;20086;-65
2023/05/18 04:45:40;;;;;;;2.15;0.90;;;;;;;;;;5039690;28;20058;-66
2023/05/18 04:48:13;;;;;;;4.45;1.23;;;;;;;;;;5045379;28;20058;-68
2023/05/18 04:50:40;;;;;;;2.60;1.02;;;;;;;;;;5058782;28;20127;-64
2023/05/18 04:53:07;;;;;;;3.97;1.20;;;;;;;;;;5055721;28;20097;-65
2023/05/18 04:55:38;;;;;;;3.58;1.27;;;;;;;;;;5062536;28;20056;-68
2023/05/18 04:58:04;;;;;;;6.82;1.63;;;;;;;;;;4978443;28;20141;-66
2023/05/18 05:00:31;;;;;;;4.97;1.23;;;;;;;;;;5043384;28;20064;-68
2023/05/18 05:05:41;;;;;;;5.10;1.52;;;;;;;;;;5059415;28;20085;-66
2023/05/18 05:08:07;;;;;;;4.63;1.40;;;;;;;;;;4976632;28;20054;-68
2023/05/18 05:10:34;;;;;;;4.45;1.50;;;;;;;;;;4997013;28;20089;-65
2023/05/18 05:13:01;;;;;;;4.82;1.75;;;;;;;;;;4988766;28;20133;-66
2023/05/18 05:15:28;;;;;;;6.10;1.60;;;;;;;;;;5060002;28;20058;-67
2023/05/18 05:17:55;;;;;;;2.63;1.10;;;;;;;;;;5047702;28;20313;-66
2023/05/18 05:20:21;;;;;;;7.88;1.40;;;;;;;;;;5043069;28;20061;-64
2023/05/18 05:22:48;;;;;;;7.15;1.50;;;;;;;;;;4976926;28;20065;-66
2023/05/18 05:25:18;;;;;;;6.35;1.30;;;;;;;;;;5032932;28;20064;-66
2023/05/18 05:27:45;;;;;;;5.65;1.60;;;;;;;;;;4973116;28;20058;-66
2023/05/18 05:30:22;;;;;;;9.18;1.65;;;;;;;;;;5044437;28;20086;-66
2023/05/18 05:32:51;;;;;;;3.40;1.45;;;;;;;;;;4999788;28;20128;-67
2023/05/18 05:35:17;;;;;;;6.70;1.70;;;;;;;;;;4982072;27;20081;-67
2023/05/18 05:37:47;;;;;;;4.65;1.40;;;;;;;;;;5052878;28;20053;-66
2023/05/18 05:40:14;;;;;;;2.75;1.15;;;;;;;;;;4975467;28;20093;-66
2023/05/18 05:42:41;;;;;;;3.00;1.38;;;;;;;;;;5043913;28;20072;-68
2023/05/18 05:45:10;;;;;;;5.40;1.50;;;;;;;;;;4959004;28;20054;-66
2023/05/18 05:47:38;;;;;;;2.83;1.17;;;;;;;;;;4989739;28;20094;-65
2023/05/18 05:50:07;;;;;;;6.60;1.33;;;;;;;;;;5043906;28;20090;-66
2023/05/18 05:52:36;;;;;;;2.80;1.35;;;;;;;;;;4989577;28;20111;-66
2023/05/18 05:55:03;;;;;;;5.55;1.55;;;;;;;;;;5072709;28;20086;-67
2023/05/18 05:57:29;;;;;;;7.18;1.52;;;;;;;;;;5075137;28;20151;-64
2023/05/18 05:59:56;;;;;;;3.70;1.40;;;;;;;;;;5038655;28;20126;-67
2023/05/18 06:02:22;;;;;;;2.83;1.02;;;;;;;;;;5042628;28;20057;-69
2023/05/18 06:04:50;;;;;;;6.53;1.52;;;;;;;;;;5037215;28;20113;-68
2023/05/18 06:07:17;;;;;;;5.28;1.67;;;;;;;;;;4971581;28;20056;-67
2023/05/18 06:09:45;;;;;;;4.20;1.58;;;;;;;;;;4979662;28;20063;-65
2023/05/18 06:12:12;;;;;;;8.00;1.60;;;;;;;;;;5050209;28;20149;-65
2023/05/18 06:14:41;;;;;;;4.35;1.38;;;;;;;;;;5053323;28;20125;-66
2023/05/18 06:17:07;;;;;;;4.70;1.40;;;;;;;;;;5059775;27;20098;-67
2023/05/18 06:19:34;;;;;;;3.28;1.40;;;;;;;;;;5051948;28;20145;-68
2023/05/18 06:22:02;;;;;;;3.70;1.55;;;;;;;;;;4993098;28;20069;-69
2023/05/18 06:24:35;;;;;;;6.80;1.58;;;;;;;;;;4988637;28;20062;-70
2023/05/18 06:29:45;;;;;;;6.68;1.67;;;;;;;;;;5036951;28;20051;-65
2023/05/18 06:32:17;;;;;;;4.57;1.40;;;;;;;;;;4976422;28;20065;-68
2023/05/18 06:34:44;;;;;;;9.20;1.45;;;;;;;;;;4983039;27;20065;-67
2023/05/18 06:37:12;;;;;;;4.45;1.38;;;;;;;;;;4979166;28;20073;-67
2023/05/18 06:39:39;;;;;;;2.80;1.37;;;;;;;;;;5059581;28;20089;-68
2023/05/18 06:42:06;;;;;;;7.20;1.42;;;;;;;;;;5043284;28;20309;-70
2023/05/18 06:44:38;;;;;;;7.18;1.77;;;;;;;;;;4956889;28;20121;-67
2023/05/18 06:47:05;;;;;;;7.60;1.27;;;;;;;;;;5019106;28;20054;-64
2023/05/18 06:49:31;;;;;;;8.32;1.50;;;;;;;;;;5059668;28;20074;-64
2023/05/18 06:51:59;;;;;;;3.55;1.10;;;;;;;;;;5067276;28;20060;-65
2023/05/18 06:54:29;;;;;;;2.85;1.23;;;;;;;;;;5064983;28;20068;-65
2023/05/18 06:56:55;;;;;;;3.47;1.23;;;;;;;;;;5072780;28;20063;-69
2023/05/18 06:59:23;;;;;;;6.50;1.30;;;;;;;;;;5053077;28;20059;-66
2023/05/18 07:01:50;;;;;;;3.88;1.70;;;;;;;;;;5071822;28;20052;-69
2023/05/18 07:04:18;;;;;;;4.32;1.77;;;;;;;;;;5049827;28;20052;-65
2023/05/18 07:06:44;;;;;;;4.50;1.30;;;;;;;;;;4994837;28;20062;-66
2023/05/18 07:09:11;;;;;;;7.38;1.42;;;;;;;;;;4958020;28;20054;-68
2023/05/18 07:11:41;;;;;;;4.78;1.33;;;;;;;;;;4971450;28;20081;-68
2023/05/18 07:14:07;;;;;;;6.20;1.52;;;;;;;;;;4966620;28;20135;-70
2023/05/18 07:16:34;;;;;;;4.47;1.20;;;;;;;;;;4983630;28;20115;-65
2023/05/18 07:19:03;;;;;;;6.55;1.50;;;;;;;;;;4971622;28;20065;-69
2023/05/18 07:21:30;;;;;;;5.70;1.27;;;;;;;;;;4964264;28;20063;-66
2023/05/18 07:23:56;;;;;;;6.93;1.40;;;;;;;;;;4975442;28;20081;-66
2023/05/18 07:26:23;;;;;;;4.90;1.20;;;;;;;;;;4971211;28;20116;-64
2023/05/18 07:28:52;;;;;;;5.50;1.30;;;;;;;;;;4977286;28;20111;-67
2023/05/18 07:31:20;;;;;;;9.18;1.40;;;;;;;;;;4970236;28;20262;-67
2023/05/18 07:33:48;;;;;;;3.83;1.20;;;;;;;;;;4974770;28;20070;-66
2023/05/18 07:36:15;;;;;;;5.15;1.15;;;;;;;;;;4957307;28;20062;-66
2023/05/18 07:38:42;;;;;;;5.00;1.27;;;;;;;;;;4986706;28;20082;-64
2023/05/18 07:41:09;;;;;;;9.68;1.50;;;;;;;;;;4973234;28;20066;-67
2023/05/18 07:43:36;;;;;;;6.40;1.30;;;;;;;;;;4976804;28;20070;-68
2023/05/18 07:46:03;;;;;;;7.53;1.23;;;;;;;;;;4962715;28;20056;-64
2023/05/18 07:48:30;;;;;;;5.30;1.27;;;;;;;;;;4978581;28;20068;-67
2023/05/18 07:50:57;;;;;;;8.65;1.63;;;;;;;;;;4990283;28;20070;-66
2023/05/18 07:53:23;;;;;;;5.75;1.45;;;;;;;;;;4964289;28;20097;-65
2023/05/18 07:55:49;;;;;;;4.95;1.20;;;;;;;;;;4948591;28;20097;-69
2023/05/18 07:58:16;;;;;;;10.63;1.40;;;;;;;;;;4970845;28;20197;-64
2023/05/18 08:00:43;;;;;;;3.72;1.02;;;;;;;;;;4996082;28;20054;-68
2023/05/18 08:03:11;;;;;;;6.22;1.35;;;;;;;;;;5054116;28;20040;-67
2023/05/18 08:05:38;;;;;;;3.90;1.00;;;;;;;;;;5033843;28;20060;-65
2023/05/18 08:08:04;;;;;;;10.25;1.75;;;;;;;;;;5075547;28;20312;-70
2023/05/18 08:10:31;;;;;;;3.80;1.13;;;;;;;;;;5093415;28;20062;-69
2023/05/18 08:12:58;;;;;;;4.43;1.60;;;;;;;;;;5097095;28;20052;-66
2023/05/18 08:15:24;;;;;;;11.45;1.77;;;;;;;;;;5065023;28;20056;-67
2023/05/18 08:17:51;;;;;;;7.03;1.85;;;;;;;;;;5079333;27;20147;-66
2023/05/18 08:20:19;;;;;;;4.30;1.40;;;;;;;;;;5074317;28;20060;-69
2023/05/18 08:22:45;;;;;;;6.22;1.30;;;;;;;;;;5077070;28;20059;-68
2023/05/18 08:25:12;;;;;;;5.88;1.23;;;;;;;;;;5064017;28;20063;-65
2023/05/18 08:27:38;;;;;;;5.18;1.40;;;;;;;;;;5094071;28;20072;-68
2023/05/18 08:30:09;;;;;;;6.13;1.40;;;;;;;;;;5091977;27;20083;-65
2023/05/18 08:32:36;;;;;;;3.60;1.17;;;;;;;;;;5077570;28;20047;-66
2023/05/18 08:35:03;;;;;;;6.78;1.17;;;;;;;;;;5083174;27;20058;-66
2023/05/18 08:37:36;;;;;;;10.73;1.50;;;;;;;;;;5045584;28;20139;-68
2023/05/18 08:40:03;;;;;;;3.67;1.20;;;;;;;;;;5048088;28;20060;-63
2023/05/18 08:42:33;;;;;;;4.97;1.35;;;;;;;;;;5060516;28;20053;-68
2023/05/18 08:45:10;;;;;;;3.55;1.00;;;;;;;;;;5048389;28;20060;-70
2023/05/18 08:47:40;;;;;;;5.47;1.60;;;;;;;;;;5076924;28;20113;-67
2023/05/18 08:50:14;;;;;;;5.40;1.42;;;;;;;;;;5093820;28;20052;-68
2023/05/18 08:52:47;;;;;;;10.05;1.25;;;;;;;;;;5077752;28;20048;-65
2023/05/18 08:55:17;;;;;;;5.30;1.20;;;;;;;;;;5067020;28;20074;-65
2023/05/18 08:57:48;;;;;;;4.75;1.48;;;;;;;;;;5086193;28;20182;-63
2023/05/18 09:00:16;;;;;;;9.93;1.42;;;;;;;;;;5094276;28;20055;-69
2023/05/18 09:02:42;;;;;;;4.80;1.52;;;;;;;;;;5038575;28;20054;-64
2023/05/18 09:05:13;;;;;;;9.38;1.52;;;;;;;;;;5027102;28;20049;-66
2023/05/18 09:07:41;;;;;;;8.32;1.58;;;;;;;;;;5019714;28;20148;-66
2023/05/18 09:10:14;;;;;;;7.13;1.63;;;;;;;;;;5066343;28;20148;-71
2023/05/18 09:12:41;;;;;;;12.55;1.77;;;;;;;;;;5053840;28;20362;-64
2023/05/18 09:15:10;;;;;;;4.32;1.25;;;;;;;;;;5043539;28;20071;-65
2023/05/18 09:17:42;;;;;;;6.22;1.38;;;;;;;;;;5077661;28;20123;-68
2023/05/18 09:20:09;;;;;;;4.70;1.85;;;;;;;;;;5083180;28;20116;-66
2023/05/18 09:22:35;;;;;;;8.70;1.40;;;;;;;;;;5074770;28;20085;-67
2023/05/18 09:25:02;;;;;;;5.05;1.48;;;;;;;;;;5068024;28;20162;-69
2023/05/18 09:27:33;;;;;;;15.02;1.98;;;;;;;;;;5040279;28;20054;-65
2023/05/18 09:30:00;;;;;;;6.90;1.73;;;;;;;;;;4976131;28;20062;-70
2023/05/18 09:32:26;;;;;;;6.95;1.58;;;;;;;;;;5043160;28;20313;-64
2023/05/18 09:34:54;;;;;;;5.20;1.52;;;;;;;;;;4986347;27;20056;-70
2023/05/18 09:37:21;;;;;;;5.65;1.65;;;;;;;;;;4990291;28;20127;-70
2023/05/18 09:39:57;;;;;;;15.27;1.80;;;;;;;;;;5067252;28;20148;-69
2023/05/18 09:42:27;;;;;;;9.90;1.48;;;;;;;;;;4987803;28;20062;-72
2023/05/18 09:45:00;;;;;;;9.52;2.00;;;;;;;;;;4975813;28;20157;-71
2023/05/18 09:47:30;;;;;;;52.17;2.80;;;;;;;;;;5051560;28;20047;-69
2023/05/18 09:50:01;;;;;;;21.15;1.85;;;;;;;;;;5062600;28;20054;-68
2023/05/18 09:52:30;;;;;;;23.92;2.25;;;;;;;;;;4973549;28;20086;-70
2023/05/18 09:55:05;;;;;;;36.13;2.83;;;;;;;;;;5045123;28;20099;-67
2023/05/18 09:57:39;;;;;;;25.52;2.20;;;;;;;;;;4979304;28;20105;-71
2023/05/18 10:00:11;;;;;;;14.20;2.22;;;;;;;;;;4976767;28;20069;-66
2023/05/18 10:05:30;;;;;;;13.07;1.77;;;;;;;;;;4983132;28;20120;-67
2023/05/18 10:08:01;;;;;;;23.95;2.03;;;;;;;;;;5014285;28;20058;-69
2023/05/18 10:10:30;;;;;;;79.93;4.35;;;;;;;;;;5065137;28;20062;-71
2023/05/18 10:12:57;;;;;;;16.45;1.95;;;;;;;;;;5059703;28;20060;-70
2023/05/18 10:15:28;;;;;;;23.67;2.22;;;;;;;;;;4918919;28;20052;-74
2023/05/18 10:17:57;;;;;;;22.25;1.90;;;;;;;;;;4919351;28;20158;-73
2023/05/18 10:20:25;;;;;;;18.45;2.67;;;;;;;;;;4920754;28;20122;-75
2023/05/18 10:22:52;;;;;;;19.17;2.80;;;;;;;;;;4921219;28;20066;-74
2023/05/18 10:25:30;;;;;;;7.78;2.38;;;;;;;;;;4892479;28;20049;-72
2023/05/18 10:28:00;;;;;;;10.77;2.30;;;;;;;;;;4943331;28;20055;-73
2023/05/18 10:30:31;;;;;;;11.70;2.40;;;;;;;;;;4916632;28;20047;-72
2023/05/18 10:33:05;;;;;;;7.57;1.50;;;;;;;;;;4930051;28;20154;-73
2023/05/18 10:35:37;;;;;;;17.50;2.15;;;;;;;;;;4899944;28;20092;-72
2023/05/18 10:38:05;;;;;;;16.00;2.05;;;;;;;;;;4887276;28;20138;-69
2023/05/18 10:40:42;;;;;;;16.02;2.50;;;;;;;;;;4913005;28;20059;-70
2023/05/18 10:43:16;;;;;;;11.02;1.85;;;;;;;;;;5063011;28;20057;-71
2023/05/18 10:45:46;;;;;;;15.95;2.83;;;;;;;;;;5012954;28;20057;-72
2023/05/18 10:48:13;;;;;;;10.93;3.25;;;;;;;;;;5064483;28;20054;-71
2023/05/18 10:50:43;;;;;;;14.15;4.30;;;;;;;;;;5046222;28;20054;-72
2023/05/18 10:53:12;;;;;;;11.88;3.75;;;;;;;;;;4987045;28;20119;-75
2023/05/18 10:55:40;;;;;;;;;;;;;;;;;;5001094;28;20055;-73
2023/05/18 10:58:09;;;;;;;;;;;;;;;;;;4980291;28;19929;-75
2023/05/18 11:00:36;;;;;;;;;;;;;;;;;;4984932;28;19976;-73
2023/05/18 11:03:11;;;;;;;9.50;2.47;;;;;;;;;;4990529;28;19940;-72
2023/05/18 11:05:39;;;;;;;10.18;2.60;;;;;;;;;;4998581;28;20059;-79
2023/05/18 11:08:06;;;;;;;8.75;2.53;;;;;;;;;;4970262;28;20080;-76
2023/05/18 11:10:34;;;;;;;8.70;2.58;;;;;;;;;;5053153;28;20048;-82
2023/05/18 11:13:01;;;;;;;8.52;2.00;;;;;;;;;;5039296;28;20048;-73
2023/05/18 11:15:50;;;;;;;5.20;1.92;;;;;;;;;;5015982;28;20052;-80
2023/05/18 11:18:19;;;;;;;11.10;2.20;;;;;;;;;;5042354;28;20115;-73
2023/05/18 11:20:49;;;;;;;10.10;2.03;;;;;;;;;;5052585;28;20053;-71
2023/05/18 11:23:26;;;;;;;5.40;2.00;;;;;;;;;;5070633;28;20052;-77
2023/05/18 11:25:53;;;;;;;18.70;2.88;;;;;;;;;;5019878;28;20087;-75
2023/05/18 11:28:22;;;;;;;17.17;2.72;;;;;;;;;;5039206;28;20056;-72
2023/05/18 11:30:51;;;;;;;11.32;2.55;;;;;;;;;;5052138;28;20176;-70
2023/05/18 11:33:28;;;;;;;9.93;2.25;;;;;;;;;;5049237;28;20056;-73
2023/05/18 11:36:02;;;;;;;8.68;2.33;;;;;;;;;;4979023;28;20219;-72
2023/05/18 11:38:53;;;;;;;8.65;2.25;;;;;;;;;;4961727;28;20193;-70
2023/05/18 11:41:27;;;;;;;5.97;1.70;;;;;;;;;;4950286;28;20046;-69
2023/05/18 11:44:07;;;;;;;7.97;2.22;;;;;;;;;;4956278;28;20042;-73
2023/05/18 11:48:58;;;;;;;13.52;2.15;;;;;;;;;;5078420;27;20142;-71
2023/05/18 11:51:30;;;;;;;9.65;2.05;;;;;;;;;;5059360;28;20063;-70
2023/05/18 11:53:57;;;;;;;17.52;2.38;;;;;;;;;;5072243;28;20056;-67
2023/05/18 11:56:27;;;;;;;10.73;2.33;;;;;;;;;;5023233;28;20065;-64
2023/05/18 11:59:12;;;;;;;17.50;2.28;;;;;;;;;;5041737;28;20088;-68
2023/05/18 12:01:41;;;;;;;11.60;2.22;;;;;;;;;;5035882;28;20068;-68
2023/05/18 12:04:09;;;;;;;6.82;1.88;;;;;;;;;;5030099;28;20076;-67
2023/05/18 12:06:36;;;;;;;10.35;2.17;;;;;;;;;;5018864;28;20057;-68
2023/05/18 12:09:05;;;;;;;8.65;1.60;;;;;;;;;;5033396;28;20041;-66
2023/05/18 12:11:32;;;;;;;9.55;1.98;;;;;;;;;;5033132;28;20084;-66
2023/05/18 12:14:02;;;;;;;8.00;1.83;;;;;;;;;;5030434;28;20049;-68
2023/05/18 12:16:29;;;;;;;10.80;2.20;;;;;;;;;;5007041;28;20079;-69
2023/05/18 12:18:57;;;;;;;6.10;1.60;;;;;;;;;;5034017;28;20077;-66
2023/05/18 12:21:25;;;;;;;6.90;1.65;;;;;;;;;;5027437;28;20121;-70
2023/05/18 12:23:57;;;;;;;5.72;1.70;;;;;;;;;;5046244;28;20076;-66
2023/05/18 12:26:24;;;;;;;7.45;1.67;;;;;;;;;;5011091;28;20045;-66
2023/05/18 12:28:52;;;;;;;10.85;1.95;;;;;;;;;;5045572;28;20065;-66
2023/05/18 12:31:20;;;;;;;7.60;1.73;;;;;;;;;;5037018;28;20080;-68
2023/05/18 12:33:47;;;;;;;8.30;1.90;;;;;;;;;;5037476;28;20116;-68
2023/05/18 12:36:14;;;;;;;6.38;1.90;;;;;;;;;;5021815;28;20060;-68
2023/05/18 12:38:41;;;;;;;6.05;1.63;;;;;;;;;;5029311;28;20073;-66
2023/05/18 12:41:08;;;;;;;4.85;1.50;;;;;;;;;;5027937;28;20061;-68
2023/05/18 12:43:35;;;;;;;4.47;1.40;;;;;;;;;;5032875;28;20064;-69
2023/05/18 12:46:02;;;;;;;9.20;1.95;;;;;;;;;;5021642;28;20077;-67
2023/05/18 12:48:29;;;;;;;4.72;1.70;;;;;;;;;;5055009;28;20139;-67
2023/05/18 12:50:56;;;;;;;7.87;1.57;;;;;;;;;;5047918;28;20080;-67
2023/05/18 12:53:23;;;;;;;9.18;1.90;;;;;;;;;;5046151;28;20137;-68
2023/05/18 12:55:58;;;;;;;6.65;1.83;;;;;;;;;;5030618;28;20139;-69
2023/05/18 12:58:24;;;;;;;8.25;1.67;;;;;;;;;;5030827;28;20114;-69
2023/05/18 13:00:51;;;;;;;4.03;1.70;;;;;;;;;;5036387;28;20051;-65
2023/05/18 13:03:18;;;;;;;5.40;1.70;;;;;;;;;;5038157;28;20124;-68
2023/05/18 13:05:46;;;;;;;6.05;1.63;;;;;;;;;;5022759;28;20057;-70
2023/05/18 13:08:14;;;;;;;7.80;1.50;;;;;;;;;;5038532;28;20144;-66
2023/05/18 13:10:43;;;;;;;7.18;1.67;;;;;;;;;;5021668;28;20053;-69
2023/05/18 13:13:15;;;;;;;3.78;1.35;;;;;;;;;;5034814;28;20147;-71
2023/05/18 13:15:42;;;;;;;4.57;1.60;;;;;;;;;;5033978;28;20072;-69
2023/05/18 13:18:09;;;;;;;5.03;1.67;;;;;;;;;;5023311;28;20120;-68
2023/05/18 13:20:38;;;;;;;7.03;1.73;;;;;;;;;;5020750;28;20143;-68
2023/05/18 13:23:06;;;;;;;3.63;1.30;;;;;;;;;;5034268;28;20064;-70
2023/05/18 13:25:33;;;;;;;6.60;1.80;;;;;;;;;;5018423;28;20148;-65
2023/05/18 13:28:00;;;;;;;5.45;1.45;;;;;;;;;;5029668;28;20081;-69
2023/05/18 13:30:28;;;;;;;5.60;1.50;;;;;;;;;;5022182;28;20122;-69
2023/05/18 13:32:54;;;;;;;6.28;1.60;;;;;;;;;;5020170;28;20057;-65
2023/05/18 13:35:21;;;;;;;4.05;1.40;;;;;;;;;;5013490;28;20057;-67
2023/05/18 13:37:48;;;;;;;6.18;1.98;;;;;;;;;;5021925;28;20117;-66
2023/05/18 13:40:14;;;;;;;18.58;8.77;;;;;;;;;;5021980;28;20071;-68
2023/05/18 13:42:41;;;;;;;27.55;10.00;;;;;;;;;;5017032;28;20073;-66
2023/05/18 13:45:08;;;;;;;19.23;7.00;;;;;;;;;;5033788;28;20071;-67
2023/05/18 13:47:36;;;;;;;17.10;5.60;;;;;;;;;;4975627;28;20076;-73
2023/05/18 13:50:04;;;;;;;16.63;4.53;;;;;;;;;;4980734;28;20049;-70
2023/05/18 13:52:32;;;;;;;10.27;3.28;;;;;;;;;;4996630;28;20050;-73
2023/05/18 13:55:00;;;;;;;19.02;3.97;;;;;;;;;;4989392;28;20144;-71
2023/05/18 13:57:31;;;;;;;12.77;3.53;;;;;;;;;;4941768;28;20050;-73
2023/05/18 14:00:02;;;;;;;49.15;4.15;;;;;;;;;;5004766;28;20144;-73
2023/05/18 14:02:31;;;;;;;8.75;3.17;;;;;;;;;;5018817;28;20041;-71
2023/05/18 14:05:08;;;;;;;9.05;3.00;;;;;;;;;;5016116;28;20065;-74
2023/05/18 14:07:36;;;;;;;10.82;3.08;;;;;;;;;;4924274;28;20051;-75
2023/05/18 14:10:14;;;;;;;12.23;2.53;;;;;;;;;;4942070;28;20062;-73
2023/05/18 14:12:42;;;;;;;5.57;2.25;;;;;;;;;;4925903;29;20138;-72
2023/05/18 14:15:13;;;;;;;9.65;2.70;;;;;;;;;;4919679;28;20054;-76
2023/05/18 14:32:30;;;;;;;7.20;2.15;;;;;;;;;;4860381;29;20035;-73
2023/05/18 14:34:57;;;;;;;5.00;1.80;;;;;;;;;;4923931;28;20055;-74
2023/05/18 14:37:26;;;;;;;5.75;2.10;;;;;;;;;;4908415;28;20122;-73
2023/05/18 14:39:53;;;;;;;8.45;2.03;;;;;;;;;;4936605;28;20240;-74
2023/05/18 14:42:20;;;;;;;5.82;1.60;;;;;;;;;;4940037;28;20176;-70
2023/05/18 14:44:47;;;;;;;6.93;1.90;;;;;;;;;;4964177;28;20061;-71
2023/05/18 15:10:36;;;;;;;5.32;1.77;;;;;;;;;;5039121;27;20620;-70
2023/05/18 15:13:03;;;;;;;6.13;1.77;;;;;;;;;;5028552;28;20140;-71
2023/05/18 15:15:30;;;;;;;4.50;1.67;;;;;;;;;;5013762;28;20060;-71
2023/05/18 15:17:57;;;;;;;6.35;1.30;;;;;;;;;;4986763;28;20048;-72
2023/05/18 15:20:25;;;;;;;6.03;1.60;;;;;;;;;;4965568;28;20159;-72
2023/05/18 15:22:51;;;;;;;9.38;1.40;;;;;;;;;;4987242;28;20058;-72
2023/05/18 15:25:19;;;;;;;3.58;1.30;;;;;;;;;;4960640;28;20072;-72
2023/05/18 15:27:51;;;;;;;3.50;1.30;;;;;;;;;;4989843;28;20145;-70
2023/05/18 15:30:28;;;;;;;6.85;1.60;;;;;;;;;;4991728;28;20314;-71
2023/05/18 15:32:55;;;;;;;7.22;1.40;;;;;;;;;;5000978;28;20144;-72
2023/05/18 15:35:22;;;;;;;3.50;1.30;;;;;;;;;;4986749;28;20054;-73
2023/05/18 15:37:52;;;;;;;4.85;1.38;;;;;;;;;;4991155;28;20054;-71
2023/05/18 15:40:19;;;;;;;3.55;1.27;;;;;;;;;;5001081;28;20412;-70